createdAt,value
2023-03-18T00:07:14.009Z,1.83
2023-03-18T00:17:20.508Z,1.77
2023-03-18T00:27:26.848Z,1.73
2023-03-18T00:37:34.545Z,1.68
2023-03-18T00:47:41.015Z,1.71
2023-03-18T00:57:47.407Z,1.65
2023-03-18T01:07:54.329Z,1.53
2023-03-18T01:18:00.852Z,1.47
2023-03-18T01:28:07.398Z,1.40
2023-03-18T01:38:13.796Z,1.30
2023-03-18T01:48:22.390Z,1.20
2023-03-18T01:58:35.301Z,1.18
2023-03-18T02:08:42.073Z,1.19
2023-03-18T02:18:54.088Z,1.15
2023-03-18T02:29:04.677Z,1.09
2023-03-18T02:39:15.466Z,0.90
2023-03-18T02:49:23.321Z,0.79
2023-03-18T02:59:30.567Z,0.70
2023-03-18T03:09:36.932Z,0.64
2023-03-18T03:19:43.254Z,0.63
2023-03-18T03:29:49.626Z,0.61
2023-03-18T03:39:56.209Z,0.57
2023-03-18T03:50:02.485Z,0.46
2023-03-18T04:00:14.843Z,0.37
2023-03-18T04:10:22.781Z,0.28
2023-03-18T04:20:29.078Z,0.19
2023-03-18T04:30:35.451Z,0.09
2023-03-18T04:40:42.272Z,-0.01
2023-03-18T04:50:48.543Z,-0.05
2023-03-18T05:00:54.984Z,-0.14
2023-03-18T05:11:01.559Z,-0.21
2023-03-18T05:21:08.921Z,-0.10
2023-03-18T05:31:15.222Z,0.07
2023-03-18T05:41:21.612Z,0.40
2023-03-18T05:51:27.878Z,0.84
2023-03-18T06:01:35.172Z,1.30
2023-03-18T06:11:41.553Z,1.86
2023-03-18T06:21:47.862Z,2.11
2023-03-18T06:31:54.316Z,2.52
2023-03-18T06:42:00.590Z,2.83
2023-03-18T06:52:07.026Z,3.34
2023-03-18T07:02:16.584Z,3.79
2023-03-18T07:12:23.346Z,4.05
2023-03-18T07:22:30.391Z,4.30
2023-03-18T07:32:38.063Z,4.74
2023-03-18T07:42:44.459Z,5.52
2023-03-18T07:52:50.748Z,6.24
2023-03-18T08:02:57.098Z,6.76
2023-03-18T08:13:04.343Z,6.94
2023-03-18T08:23:10.641Z,7.51
2023-03-18T08:33:17.233Z,8.18
2023-03-18T08:43:23.621Z,8.96
2023-03-18T08:53:29.901Z,9.79
2023-03-18T09:03:35.843Z,10.28
2023-03-18T09:13:42.348Z,11.01
2023-03-18T09:23:48.705Z,11.69
2023-03-18T09:33:54.995Z,12.18
2023-03-18T09:44:25.750Z,12.43
2023-03-18T09:54:42.328Z,12.88
2023-03-18T10:04:54.976Z,13.33
2023-03-18T10:15:05.443Z,13.69
2023-03-18T10:25:20.181Z,14.06
2023-03-18T10:36:01.538Z,14.40
2023-03-18T10:46:10.671Z,14.94
2023-03-18T10:56:17.066Z,15.12
2023-03-18T11:06:42.832Z,15.12
2023-03-18T11:16:51.341Z,15.22
2023-03-18T11:26:58.673Z,15.42
2023-03-18T11:37:07.060Z,15.45
2023-03-18T11:47:22.263Z,15.64
2023-03-18T11:57:59.800Z,15.80
2023-03-18T12:08:10.991Z,15.88
2023-03-18T12:18:25.982Z,16.04
2023-03-18T12:28:36.050Z,16.39
2023-03-18T12:39:07.138Z,16.60
2023-03-18T12:49:26.974Z,16.86
2023-03-18T12:59:41.499Z,17.11
2023-03-18T13:09:57.403Z,17.26
2023-03-18T13:20:15.627Z,17.10
2023-03-18T13:31:00.524Z,17.00
2023-03-18T13:41:13.227Z,16.82
2023-03-18T13:51:21.665Z,16.71
2023-03-18T14:01:30.805Z,16.57
2023-03-18T14:11:51.466Z,16.39
2023-03-18T14:22:22.796Z,16.26
2023-03-18T14:32:34.889Z,16.15
2023-03-18T14:42:47.160Z,16.06
2023-03-18T14:52:57.012Z,15.98
2023-03-18T15:03:16.321Z,15.82
2023-03-18T15:13:24.328Z,15.63
2023-03-18T15:23:39.706Z,15.39
2023-03-18T15:33:48.663Z,15.15
2023-03-18T15:43:55.035Z,14.95
2023-03-18T15:54:10.544Z,14.71
2023-03-18T16:04:18.385Z,14.45
2023-03-18T16:14:28.741Z,14.09
2023-03-18T16:24:35.616Z,13.74
2023-03-18T16:34:45.417Z,13.41
2023-03-18T16:44:53.380Z,13.07
2023-03-18T16:54:59.670Z,12.72
2023-03-18T17:05:07.715Z,12.28
2023-03-18T17:15:16.611Z,11.90
2023-03-18T17:25:22.549Z,11.90
2023-03-18T17:35:29.232Z,11.43
2023-03-18T17:45:36.629Z,11.10
2023-03-18T17:55:42.960Z,10.87
2023-03-18T18:05:49.431Z,10.61
2023-03-18T18:15:55.792Z,10.45
2023-03-18T18:26:10.112Z,10.28
2023-03-18T18:36:16.943Z,10.07
2023-03-18T18:46:24.674Z,9.85
2023-03-18T18:56:37.997Z,9.61
2023-03-18T19:06:44.970Z,9.45
2023-03-18T19:16:52.878Z,9.33
2023-03-18T19:27:02.582Z,9.23
2023-03-18T19:37:22.453Z,9.14
2023-03-18T19:47:30.628Z,9.05
2023-03-18T19:57:38.215Z,8.93
2023-03-18T20:07:44.594Z,8.85
2023-03-18T20:17:52.270Z,8.73
2023-03-18T20:27:59.410Z,8.55
2023-03-18T20:38:11.518Z,8.44
2023-03-18T20:48:19.202Z,8.29
2023-03-18T20:58:27.731Z,8.15
2023-03-18T21:08:34.632Z,8.02
2023-03-18T21:18:43.883Z,7.85
2023-03-18T21:28:50.884Z,7.68
2023-03-18T21:38:57.454Z,7.49
2023-03-18T21:49:03.733Z,7.31
2023-03-18T21:59:10.084Z,7.12
2023-03-18T22:09:16.390Z,6.97
2023-03-18T22:19:22.745Z,6.84
2023-03-18T22:29:29.073Z,6.61
2023-03-18T22:39:35.378Z,6.15
2023-03-18T22:49:42.013Z,5.66
2023-03-18T22:59:48.896Z,5.24
2023-03-18T23:09:59.929Z,4.77
2023-03-18T23:20:06.388Z,4.39
2023-03-18T23:30:14.498Z,4.32
2023-03-18T23:40:21.241Z,4.40
2023-03-18T23:50:27.571Z,4.59
